Time;durP1;ratioP1;P1;durP2;ratioP2;P2;SDS_P1;SDS_P2;PMS_P1;PMS_P2;Temp;Humidity;BMP_temperature;BMP_pressure;BME280_temperature;BME280_humidity;BME280_pressure;Samples;Min_cycle;Max_cycle;Signal;HPM_P1;HPM_P2
2022/05/11 00:01:25;;;;;;;5.35;2.80;;;;;;;;;;4903460;29;20051;-73
2022/05/11 00:03:52;;;;;;;6.72;2.80;;;;;;;;;;4936939;29;20056;-73
2022/05/11 00:06:17;;;;;;;7.05;2.85;;;21.80;78.50;;;;;;4900196;29;20075;-73
2022/05/11 00:08:43;;;;;;;10.38;3.08;;;21.90;78.60;;;;;;4927511;29;20129;-73
2022/05/11 00:11:09;;;;;;;5.38;2.92;;;21.70;78.80;;;;;;4886818;29;20130;-73
2022/05/11 00:13:35;;;;;;;5.82;2.95;;;21.70;78.40;;;;;;4901667;29;20512;-72
2022/05/11 00:16:01;;;;;;;5.43;3.40;;;21.50;78.30;;;;;;4888122;29;20043;-73
2022/05/11 00:18:26;;;;;;;6.38;3.00;;;21.60;78.60;;;;;;4895907;29;20118;-73
2022/05/11 00:20:52;;;;;;;6.03;3.00;;;21.70;78.50;;;;;;4955164;29;20073;-72
2022/05/11 00:23:18;;;;;;;7.22;3.17;;;21.50;78.60;;;;;;4928092;29;20052;-73
2022/05/11 00:25:47;;;;;;;5.88;2.90;;;21.70;78.50;;;;;;4936135;29;20043;-73
2022/05/11 00:28:13;;;;;;;6.47;2.90;;;21.80;78.60;;;;;;4938896;29;20063;-74
2022/05/11 00:30:39;;;;;;;6.07;3.30;;;21.80;78.70;;;;;;4941990;29;20063;-73
2022/05/11 00:33:04;;;;;;;6.85;2.80;;;21.80;78.60;;;;;;4931633;29;20047;-73
2022/05/11 00:35:33;;;;;;;6.13;3.40;;;21.60;78.50;;;;;;4927577;29;20090;-73
2022/05/11 00:37:59;;;;;;;5.50;2.95;;;;;;;;;;4938506;29;20114;-73
2022/05/11 00:40:25;;;;;;;7.00;3.20;;;21.60;78.60;;;;;;4949904;29;20058;-73
2022/05/11 00:42:51;;;;;;;6.13;3.13;;;21.70;78.90;;;;;;4930599;29;20051;-73
2022/05/11 00:45:17;;;;;;;6.28;3.25;;;21.70;78.80;;;;;;4919173;29;20091;-73
2022/05/11 00:47:48;;;;;;;6.20;3.30;;;21.70;78.60;;;;;;4903346;29;20183;-72
2022/05/11 00:50:32;;;;;;;5.60;3.13;;;21.70;78.70;;;;;;4946283;29;20048;-73
2022/05/11 00:52:58;;;;;;;5.90;3.08;;;21.60;78.80;;;;;;4924609;29;20039;-73
2022/05/11 00:55:24;;;;;;;6.63;3.38;;;21.60;78.70;;;;;;4918445;29;20047;-73
2022/05/11 00:58:04;;;;;;;6.47;3.03;;;21.60;78.90;;;;;;4944522;29;20047;-73
2022/05/11 01:00:30;;;;;;;5.85;3.03;;;21.70;78.90;;;;;;4936027;29;20050;-73
2022/05/11 01:02:59;;;;;;;8.50;3.33;;;21.80;79.30;;;;;;4938065;29;20043;-73
2022/05/11 01:05:25;;;;;;;5.28;2.58;;;21.60;79.00;;;;;;4919676;29;20043;-73
2022/05/11 01:07:52;;;;;;;6.70;3.08;;;21.70;75.90;;;;;;4920541;29;20055;-73
2022/05/11 01:10:18;;;;;;;6.65;3.00;;;21.70;76.10;;;;;;4928942;29;20062;-73
2022/05/11 01:12:45;;;;;;;6.15;3.10;;;21.90;79.10;;;;;;4922237;29;20052;-64
2022/05/11 01:15:12;;;;;;;5.70;2.95;;;21.50;78.80;;;;;;4921670;29;20517;-64
2022/05/11 01:17:38;;;;;;;5.57;3.15;;;21.70;79.00;;;;;;4923920;29;20080;-64
2022/05/11 01:20:08;;;;;;;5.97;2.65;;;21.60;78.90;;;;;;4908157;29;20051;-65
2022/05/11 01:22:55;;;;;;;6.65;2.90;;;21.50;76.30;;;;;;4909611;29;20515;-64
2022/05/11 01:25:21;;;;;;;6.07;2.80;;;21.80;75.10;;;;;;4943725;29;20572;-63
2022/05/11 01:27:47;;;;;;;6.43;3.10;;;21.70;79.10;;;;;;4889446;29;20048;-64
2022/05/11 01:30:20;;;;;;;7.00;2.85;;;21.80;79.20;;;;;;4938933;29;20128;-64
2022/05/11 01:32:51;;;;;;;5.82;2.80;;;21.70;76.80;;;;;;4921813;29;20048;-73
2022/05/11 01:35:45;;;;;;;5.45;3.15;;;21.50;79.20;;;;;;4925023;29;20114;-73
2022/05/11 01:38:29;;;;;;;6.55;3.40;;;21.80;79.50;;;;;;4947336;29;20126;-73
2022/05/11 01:40:56;;;;;;;6.18;2.80;;;;;;;;;;4941943;29;20079;-73
2022/05/11 01:43:25;;;;;;;5.07;2.60;;;21.60;79.20;;;;;;4941042;29;20052;-73
2022/05/11 01:45:51;;;;;;;5.57;2.72;;;21.60;79.30;;;;;;4958071;29;20449;-73
2022/05/11 01:48:17;;;;;;;6.63;3.13;;;21.80;79.40;;;;;;4932539;29;20044;-72
2022/05/11 01:50:43;;;;;;;5.38;2.88;;;21.70;79.90;;;;;;4917545;29;20047;-73
2022/05/11 01:53:09;;;;;;;5.75;2.63;;;21.70;76.50;;;;;;4940718;29;20062;-73
2022/05/11 01:55:35;;;;;;;5.00;2.72;;;21.60;79.30;;;;;;4919989;29;20078;-72
2022/05/11 01:58:01;;;;;;;7.97;2.92;;;21.60;76.40;;;;;;4923444;29;20044;-73
2022/05/11 02:00:27;;;;;;;6.47;3.10;;;21.70;79.40;;;;;;4910084;29;20036;-73
2022/05/11 02:02:52;;;;;;;6.05;3.03;;;21.70;79.60;;;;;;4925279;29;20131;-73
2022/05/11 02:08:03;;;;;;;5.28;2.85;;;21.70;74.70;;;;;;4921198;29;20056;-73
2022/05/11 02:10:29;;;;;;;6.57;2.95;;;21.60;79.40;;;;;;4913964;29;20106;-65
2022/05/11 02:12:57;;;;;;;5.78;2.70;;;21.60;79.50;;;;;;4908586;29;20055;-63
2022/05/11 02:15:24;;;;;;;6.18;2.92;;;21.50;76.70;;;;;;4908550;29;20444;-63
2022/05/11 02:17:49;;;;;;;5.65;2.70;;;21.60;79.60;;;;;;4912163;29;20055;-64
2022/05/11 02:20:16;;;;;;;5.65;2.60;;;21.80;76.80;;;;;;4938023;29;20462;-63
2022/05/11 02:22:41;;;;;;;6.45;2.78;;;21.60;79.40;;;;;;4929726;29;20051;-66
2022/05/11 02:25:07;;;;;;;6.55;2.80;;;21.50;79.40;;;;;;4908301;29;20055;-62
2022/05/11 02:27:33;;;;;;;5.25;2.70;;;21.30;79.30;;;;;;4922698;29;20130;-64
2022/05/11 02:30:00;;;;;;;7.60;3.20;;;21.40;79.40;;;;;;4956859;29;20053;-63
2022/05/11 02:32:26;;;;;;;5.75;2.88;;;21.80;76.70;;;;;;4933277;29;20043;-65
2022/05/11 02:35:12;;;;;;;5.35;2.72;;;21.70;79.50;;;;;;4929074;29;20053;-63
2022/05/11 02:37:48;;;;;;;5.93;2.90;;;21.40;79.50;;;;;;4909366;29;20137;-64
2022/05/11 02:40:16;;;;;;;6.18;3.20;;;21.60;79.50;;;;;;4947227;29;20055;-63
2022/05/11 02:42:41;;;;;;;3.97;2.33;;;21.70;79.80;;;;;;4951964;29;20046;-64
2022/05/11 02:45:08;;;;;;;6.47;3.08;;;21.50;79.40;;;;;;4920863;29;20039;-65
2022/05/11 02:47:34;;;;;;;5.95;3.63;;;21.50;79.50;;;;;;4955582;29;20054;-73
2022/05/11 02:50:03;;;;;;;8.02;2.85;;;21.70;79.50;;;;;;4908449;29;20051;-72
2022/05/11 02:52:29;;;;;;;5.20;2.53;;;;;;;;;;4902712;29;20048;-73
2022/05/11 02:54:55;;;;;;;5.03;2.45;;;21.60;74.70;;;;;;4922690;29;20469;-73
2022/05/11 02:57:21;;;;;;;5.88;2.50;;;;;;;;;;4920375;29;20049;-73
2022/05/11 02:59:49;;;;;;;5.70;2.60;;;21.50;79.80;;;;;;4923884;29;20110;-73
2022/05/11 03:02:17;;;;;;;5.43;2.90;;;21.40;77.20;;;;;;4916858;29;20052;-65
2022/05/11 03:04:43;;;;;;;4.90;2.50;;;;;;;;;;4914097;29;20492;-62
2022/05/11 03:07:08;;;;;;;5.60;2.85;;;21.30;74.60;;;;;;4921189;29;20099;-63
2022/05/11 03:09:34;;;;;;;5.28;2.85;;;21.50;79.50;;;;;;4904538;29;20130;-64
2022/05/11 03:12:00;;;;;;;4.50;2.75;;;21.60;80.30;;;;;;4888788;29;20497;-64
2022/05/11 03:14:26;;;;;;;5.20;2.65;;;;;;;;;;4916930;29;20039;-64
2022/05/11 03:16:52;;;;;;;6.97;2.72;;;21.60;79.60;;;;;;4919937;29;20084;-64
2022/05/11 03:19:17;;;;;;;5.75;2.60;;;21.40;79.80;;;;;;4919856;29;20146;-63
2022/05/11 03:21:43;;;;;;;6.85;3.00;;;21.60;79.60;;;;;;4921203;29;20047;-65
2022/05/11 03:24:09;;;;;;;5.50;2.75;;;21.50;79.90;;;;;;4956278;29;20405;-63
2022/05/11 03:26:35;;;;;;;5.82;2.65;;;21.50;79.60;;;;;;4939325;29;20401;-64
2022/05/11 03:29:05;;;;;;;5.13;2.47;;;21.70;79.70;;;;;;4936628;29;20055;-64
2022/05/11 03:31:34;;;;;;;5.88;2.90;;;21.40;79.70;;;;;;4938218;29;20055;-66
2022/05/11 03:36:44;;;;;;;6.30;2.67;;;21.50;75.90;;;;;;4943007;29;20110;-64
2022/05/11 03:39:14;;;;;;;7.72;2.80;;;21.50;79.60;;;;;;4950654;29;20492;-64
2022/05/11 03:41:41;;;;;;;6.20;2.83;;;21.70;80.00;;;;;;4936729;29;20059;-63
2022/05/11 03:44:06;;;;;;;5.20;2.90;;;21.50;79.90;;;;;;4938724;29;20062;-64
2022/05/11 03:46:32;;;;;;;5.88;3.20;;;21.60;79.90;;;;;;4934750;29;20043;-65
2022/05/11 03:48:58;;;;;;;5.85;3.10;;;21.40;76.80;;;;;;4938480;29;20119;-73
2022/05/11 03:51:24;;;;;;;6.82;3.55;;;21.60;76.70;;;;;;4922513;29;20055;-73
2022/05/11 03:53:50;;;;;;;6.75;3.10;;;21.40;79.60;;;;;;4933588;29;20122;-72
2022/05/11 03:56:18;;;;;;;6.55;2.72;;;;;;;;;;4937302;29;20047;-66
2022/05/11 03:58:45;;;;;;;8.77;3.03;;;21.60;79.70;;;;;;4928846;29;20051;-65
2022/05/11 04:01:11;;;;;;;6.43;2.97;;;21.30;79.50;;;;;;4948597;29;20448;-66
2022/05/11 04:03:38;;;;;;;6.13;2.80;;;21.30;79.60;;;;;;4951973;29;20123;-63
2022/05/11 04:06:03;;;;;;;6.30;3.33;;;21.50;80.40;;;;;;4920180;29;20497;-63
2022/05/11 04:08:30;;;;;;;7.53;3.03;;;;;;;;;;4920123;29;20047;-66
2022/05/11 04:10:55;;;;;;;6.32;2.85;;;21.50;79.70;;;;;;4936001;29;20062;-74
2022/05/11 04:13:21;;;;;;;6.60;2.85;;;21.60;76.60;;;;;;4938356;29;20102;-74
2022/05/11 04:15:53;;;;;;;7.30;2.72;;;21.40;79.80;;;;;;4937911;29;20047;-73
2022/05/11 04:18:19;;;;;;;6.77;2.60;;;21.60;77.30;;;;;;4915455;29;20078;-73
2022/05/11 04:20:45;;;;;;;7.55;2.90;;;21.70;80.00;;;;;;4922163;29;20306;-64
2022/05/11 04:23:11;;;;;;;6.13;2.72;;;21.40;77.00;;;;;;4922473;29;20176;-69
2022/05/11 04:25:37;;;;;;;5.63;2.50;;;21.70;80.00;;;;;;4922359;29;20083;-70
2022/05/11 04:28:07;;;;;;;6.55;2.75;;;21.50;79.90;;;;;;4904052;29;20051;-72
2022/05/11 04:30:33;;;;;;;5.25;2.33;;;21.30;79.90;;;;;;4921350;29;20055;-70
2022/05/11 04:32:59;;;;;;;6.57;2.90;;;21.40;79.80;;;;;;4917977;29;20063;-70
2022/05/11 04:35:32;;;;;;;6.03;3.00;;;;;;;;;;4903264;29;20124;-73
2022/05/11 04:37:58;;;;;;;5.80;3.08;;;21.30;79.70;;;;;;4903003;29;20054;-73
2022/05/11 04:40:24;;;;;;;6.63;2.88;;;21.50;80.00;;;;;;4907566;29;20044;-73
2022/05/11 04:42:51;;;;;;;7.55;2.80;;;21.40;79.60;;;;;;4889041;29;20055;-74
2022/05/11 04:45:17;;;;;;;5.85;2.80;;;;;;;;;;4907813;29;20075;-74
2022/05/11 04:47:43;;;;;;;5.70;2.67;;;21.40;79.80;;;;;;4940652;29;20467;-74
2022/05/11 04:50:10;;;;;;;5.65;2.97;;;21.50;79.90;;;;;;4907192;29;20122;-74
2022/05/11 04:52:36;;;;;;;5.00;2.30;;;21.30;79.90;;;;;;4906695;29;20087;-74
2022/05/11 04:55:02;;;;;;;5.85;2.80;;;21.40;77.80;;;;;;4940286;29;20150;-73
2022/05/11 04:57:28;;;;;;;6.97;2.85;;;21.40;79.90;;;;;;4891342;29;20056;-73
2022/05/11 04:59:56;;;;;;;5.47;2.60;;;;;;;;;;4940135;29;20137;-71
2022/05/11 05:02:24;;;;;;;5.28;2.47;;;21.40;79.80;;;;;;4921802;29;20070;-65
2022/05/11 05:04:50;;;;;;;7.28;2.40;;;21.60;79.90;;;;;;4956381;29;20058;-66
2022/05/11 05:07:15;;;;;;;6.38;2.83;;;21.80;80.00;;;;;;4957426;29;20098;-64
2022/05/11 05:09:44;;;;;;;6.55;2.33;;;21.50;80.00;;;;;;4922406;29;20044;-64
2022/05/11 05:12:12;;;;;;;7.88;2.72;;;;;;;;;;4930700;29;20055;-66
2022/05/11 05:14:38;;;;;;;6.70;3.22;;;21.50;79.90;;;;;;4956276;29;20059;-66
2022/05/11 05:17:05;;;;;;;8.57;2.90;;;21.40;79.80;;;;;;4905630;29;20062;-63
2022/05/11 05:19:31;;;;;;;6.15;2.83;;;21.80;80.10;;;;;;4906589;29;20167;-64
2022/05/11 05:21:58;;;;;;;5.80;2.58;;;21.60;80.20;;;;;;4924244;29;20552;-64
2022/05/11 05:24:24;;;;;;;5.57;2.60;;;21.60;80.00;;;;;;4906389;29;20544;-63
2022/05/11 05:26:49;;;;;;;4.38;2.25;;;21.70;80.00;;;;;;4922170;29;20051;-64
2022/05/11 05:31:59;;;;;;;5.90;2.35;;;21.60;80.00;;;;;;4922489;29;20086;-66
2022/05/11 05:34:25;;;;;;;6.80;2.97;;;21.50;80.00;;;;;;4906131;29;20044;-72
2022/05/11 05:36:51;;;;;;;6.18;2.60;;;21.50;80.00;;;;;;4921475;29;20070;-73
2022/05/11 05:39:17;;;;;;;5.00;2.30;;;21.80;80.00;;;;;;4922223;29;20052;-73
2022/05/11 05:41:43;;;;;;;5.80;2.70;;;21.50;80.00;;;;;;4925193;29;20063;-74
2022/05/11 05:44:09;;;;;;;6.00;2.47;;;;;;;;;;4924535;29;20051;-74
2022/05/11 05:46:36;;;;;;;5.90;2.50;;;;;;;;;;4909627;29;20051;-74
2022/05/11 05:49:02;;;;;;;5.50;2.58;;;;;;;;;;4921450;29;20048;-75
2022/05/11 05:51:27;;;;;;;5.05;2.55;;;21.50;79.80;;;;;;4924005;29;20109;-73
2022/05/11 05:53:55;;;;;;;6.65;2.58;;;21.80;77.10;;;;;;4941835;29;20047;-74
2022/05/11 05:56:20;;;;;;;6.60;2.50;;;21.50;79.90;;;;;;4932949;29;20054;-73
2022/05/11 05:58:46;;;;;;;5.43;2.75;;;21.70;80.00;;;;;;4924772;29;20489;-73
2022/05/11 06:01:13;;;;;;;7.72;3.00;;;21.30;79.70;;;;;;4920013;29;20054;-65
2022/05/11 06:03:39;;;;;;;7.78;2.80;;;21.70;79.90;;;;;;4948715;29;20046;-73
2022/05/11 06:06:07;;;;;;;6.93;2.47;;;21.90;77.30;;;;;;4953801;29;20413;-73
2022/05/11 06:08:32;;;;;;;6.78;3.08;;;21.70;79.90;;;;;;4938625;29;20085;-73
2022/05/11 06:10:59;;;;;;;6.93;2.60;;;;;;;;;;4938189;29;20106;-72
2022/05/11 06:13:26;;;;;;;5.53;2.75;;;;;;;;;;4957010;29;20043;-74
2022/05/11 06:15:53;;;;;;;5.15;2.28;;;21.80;80.20;;;;;;4941937;29;20102;-74
2022/05/11 06:18:19;;;;;;;5.50;2.78;;;21.70;79.80;;;;;;4889855;29;20103;-73
2022/05/11 06:20:46;;;;;;;8.10;2.75;;;;;;;;;;4916703;29;20130;-74
2022/05/11 06:23:12;;;;;;;5.63;2.72;;;;;;;;;;4904274;29;20467;-74
2022/05/11 06:25:38;;;;;;;7.53;3.13;;;;;;;;;;4921554;29;20505;-73
2022/05/11 06:28:07;;;;;;;5.65;2.50;;;21.90;79.90;;;;;;4905373;29;20150;-74
2022/05/11 06:30:33;;;;;;;5.22;2.55;;;21.80;79.80;;;;;;4906919;29;20044;-74
2022/05/11 06:33:00;;;;;;;5.82;2.30;;;21.60;79.80;;;;;;4889090;29;20102;-74
2022/05/11 06:35:27;;;;;;;6.75;2.63;;;21.80;79.80;;;;;;4919229;29;20047;-74
2022/05/11 06:37:54;;;;;;;5.45;2.75;;;21.90;79.90;;;;;;4925678;29;20106;-73
2022/05/11 06:40:20;;;;;;;6.47;2.67;;;21.60;79.70;;;;;;4940118;29;20403;-74
2022/05/11 06:42:48;;;;;;;6.55;2.65;;;21.90;79.80;;;;;;4923603;29;20055;-74
2022/05/11 06:45:17;;;;;;;9.15;3.30;;;21.90;79.90;;;;;;4924219;29;20437;-74
2022/05/11 06:47:43;;;;;;;7.43;3.13;;;;;;;;;;4923954;28;20383;-73
2022/05/11 06:50:11;;;;;;;5.30;2.83;;;21.90;79.70;;;;;;4903816;29;20047;-66
2022/05/11 06:52:37;;;;;;;6.10;2.53;;;22.00;79.90;;;;;;4919579;29;20059;-65
2022/05/11 07:00:35;;;;;;;8.10;2.95;;;22.20;80.00;;;;;;4956107;29;20051;-64
2022/05/11 07:03:01;;;;;;;6.45;2.63;;;22.10;79.70;;;;;;4939771;29;20114;-65
2022/05/11 07:05:28;;;;;;;6.93;3.22;;;22.00;79.50;;;;;;4939964;29;20119;-65
2022/05/11 07:07:55;;;;;;;8.77;2.67;;;;;;;;;;4919811;29;20401;-65
2022/05/11 07:10:20;;;;;;;7.45;3.08;;;22.20;79.60;;;;;;4936352;29;20137;-65
2022/05/11 07:12:47;;;;;;;7.40;2.63;;;22.20;79.60;;;;;;4920092;29;20080;-64
2022/05/11 07:15:18;;;;;;;7.25;3.05;;;22.00;79.40;;;;;;4904100;29;20044;-65
2022/05/11 07:17:50;;;;;;;7.05;2.67;;;22.40;79.70;;;;;;4922168;29;20049;-64
2022/05/11 07:20:30;;;;;;;8.30;3.08;;;22.40;79.70;;;;;;4923020;29;20055;-66
2022/05/11 07:22:56;;;;;;;7.00;3.03;;;22.00;77.70;;;;;;4938925;29;20133;-65
2022/05/11 07:25:24;;;;;;;6.47;3.13;;;22.30;79.60;;;;;;4907460;29;20087;-66
2022/05/11 07:27:51;;;;;;;8.38;3.13;;;22.20;79.60;;;;;;4908876;29;20391;-66
2022/05/11 07:30:19;;;;;;;5.75;2.60;;;22.20;79.50;;;;;;4936736;29;20047;-65
2022/05/11 07:32:45;;;;;;;6.85;2.80;;;22.20;79.60;;;;;;4917675;29;20512;-64
2022/05/11 07:35:11;;;;;;;7.90;2.85;;;22.10;79.40;;;;;;4942681;29;20051;-65
2022/05/11 07:37:37;;;;;;;5.80;2.70;;;22.30;79.60;;;;;;4914386;29;20099;-65
2022/05/11 07:40:04;;;;;;;6.07;3.05;;;22.40;79.70;;;;;;4919416;29;20146;-66
2022/05/11 07:42:30;;;;;;;7.20;2.60;;;22.30;79.60;;;;;;4919104;29;20059;-66
2022/05/11 07:44:56;;;;;;;6.35;2.97;;;22.40;79.70;;;;;;4949638;29;20123;-65
2022/05/11 07:47:22;;;;;;;7.57;2.95;;;22.40;79.50;;;;;;4919404;29;20089;-65
2022/05/11 07:49:48;;;;;;;6.55;2.85;;;;;;;;;;4920599;29;20122;-67
2022/05/11 07:52:14;;;;;;;6.18;2.83;;;22.40;79.40;;;;;;4903502;29;20505;-64
2022/05/11 07:54:41;;;;;;;7.40;2.72;;;22.40;76.70;;;;;;4903857;29;20115;-66
2022/05/11 07:59:56;;;;;;;7.95;3.35;;;22.60;79.10;;;;;;4915702;29;20071;-66
2022/05/11 08:02:26;;;;;;;10.45;3.22;;;22.60;75.40;;;;;;4946192;29;20057;-72
2022/05/11 08:04:54;;;;;;;8.60;3.45;;;22.70;76.70;;;;;;4903619;29;20055;-72
2022/05/11 08:07:22;;;;;;;7.97;2.95;;;22.60;79.00;;;;;;4919159;29;20126;-73
2022/05/11 08:09:48;;;;;;;10.70;3.53;;;22.80;78.40;;;;;;4928352;29;20054;-66
2022/05/11 08:12:13;;;;;;;6.65;2.90;;;22.70;78.80;;;;;;4916438;29;20055;-72
2022/05/11 08:14:39;;;;;;;7.50;3.20;;;22.70;78.70;;;;;;4937317;29;20047;-71
2022/05/11 08:17:05;;;;;;;8.27;3.00;;;22.80;78.70;;;;;;4938103;29;20051;-72
2022/05/11 08:19:31;;;;;;;6.82;2.65;;;22.90;75.90;;;;;;4910773;29;20044;-72
2022/05/11 08:21:57;;;;;;;9.52;3.67;;;22.70;78.50;;;;;;4949371;29;20054;-72
2022/05/11 08:24:23;;;;;;;11.25;3.72;;;23.00;75.90;;;;;;4953541;29;20086;-69
2022/05/11 08:26:51;;;;;;;7.30;2.88;;;23.00;78.50;;;;;;4909993;29;20047;-72
2022/05/11 08:34:50;;;;;;;7.15;3.20;;;23.00;78.70;;;;;;4905504;29;20131;-64
2022/05/11 08:37:15;;;;;;;8.75;3.58;;;23.10;75.50;;;;;;4887854;29;20047;-64
2022/05/11 08:39:41;;;;;;;7.55;2.88;;;23.00;75.60;;;;;;4914052;29;20047;-65
2022/05/11 08:42:07;;;;;;;6.35;2.88;;;23.00;75.30;;;;;;4902256;29;20510;-73
2022/05/11 08:44:35;;;;;;;6.95;2.90;;;22.90;78.10;;;;;;4925009;29;20055;-73
2022/05/11 08:47:04;;;;;;;8.88;2.90;;;23.20;78.20;;;;;;4890985;29;20461;-65
2022/05/11 08:49:32;;;;;;;9.05;3.05;;;23.30;78.30;;;;;;4930722;29;20400;-64
2022/05/11 08:52:04;;;;;;;8.18;2.53;;;23.00;75.30;;;;;;4937132;29;20098;-73
2022/05/11 08:54:49;;;;;;;6.20;2.58;;;23.00;77.80;;;;;;4896856;29;20111;-64
2022/05/11 08:57:23;;;;;;;8.15;3.30;;;23.30;78.00;;;;;;4887104;29;20059;-73
2022/05/11 09:00:04;;;;;;;8.88;2.88;;;23.30;77.80;;;;;;4887497;29;20061;-73
2022/05/11 09:02:51;;;;;;;7.97;3.22;;;23.20;77.80;;;;;;4899748;29;20043;-66
2022/05/11 09:05:43;;;;;;;8.73;2.80;;;23.20;77.70;;;;;;4921464;29;20047;-72
2022/05/11 09:08:09;;;;;;;8.50;3.00;;;23.20;77.90;;;;;;4920285;29;20062;-72
2022/05/11 09:10:36;;;;;;;8.02;2.70;;;23.10;74.90;;;;;;4911020;29;20051;-65
2022/05/11 09:13:05;;;;;;;11.00;3.05;;;23.30;75.30;;;;;;4902887;29;20134;-64
2022/05/11 09:16:01;;;;;;;9.73;2.60;;;23.30;75.80;;;;;;4934642;29;20534;-65
2022/05/11 09:18:38;;;;;;;7.47;2.90;;;23.20;77.70;;;;;;4883308;29;20124;-74
2022/05/11 09:21:32;;;;;;;7.20;2.78;;;23.10;77.80;;;;;;4886564;29;20497;-73
2022/05/11 09:24:02;;;;;;;7.10;2.42;;;23.40;74.10;;;;;;4882311;29;20135;-73
2022/05/11 09:26:34;;;;;;;7.50;2.78;;;23.40;77.70;;;;;;4912303;29;20148;-73
2022/05/11 09:29:23;;;;;;;8.73;2.70;;;23.40;77.50;;;;;;4895050;29;20063;-73
2022/05/11 09:31:50;;;;;;;11.20;2.90;;;23.50;77.50;;;;;;4896698;29;20422;-73
2022/05/11 09:34:27;;;;;;;7.28;2.67;;;23.40;77.30;;;;;;4911759;28;20070;-72
2022/05/11 09:37:20;;;;;;;8.93;3.95;;;23.50;77.30;;;;;;4882759;29;20486;-74
2022/05/11 09:40:20;;;;;;;9.77;3.00;;;23.40;77.20;;;;;;4880685;29;20059;-66
2022/05/11 09:42:51;;;;;;;9.48;2.80;;;23.50;74.20;;;;;;4896908;29;20060;-73
2022/05/11 09:45:47;;;;;;;7.57;2.70;;;23.50;77.10;;;;;;4898030;29;20044;-73
2022/05/11 09:48:24;;;;;;;12.18;3.40;;;23.50;77.10;;;;;;4864720;29;20061;-73
2022/05/11 09:50:54;;;;;;;9.05;2.80;;;23.50;73.10;;;;;;4834898;29;20419;-74
2022/05/11 09:53:33;;;;;;;9.82;3.05;;;23.40;77.00;;;;;;4867436;29;20061;-74
2022/05/11 09:56:32;;;;;;;12.43;3.33;;;23.40;76.90;;;;;;4849118;29;20131;-74
2022/05/11 09:59:16;;;;;;;6.60;2.35;;;23.70;74.80;;;;;;4848318;29;20061;-74
2022/05/11 10:01:41;;;;;;;8.07;2.65;;;23.50;74.70;;;;;;4850478;29;20049;-73
2022/05/11 10:04:07;;;;;;;8.80;3.22;;;23.40;77.00;;;;;;4845265;29;20125;-73
2022/05/11 10:06:35;;;;;;;13.43;3.50;;;23.30;73.70;;;;;;4845619;29;20148;-72
2022/05/11 10:09:01;;;;;;;7.63;2.47;;;;;;;;;;4862646;29;20099;-74
2022/05/11 10:11:47;;;;;;;9.95;3.00;;;23.40;72.30;;;;;;4848132;29;20464;-65
2022/05/11 10:22:56;;;;;;;7.05;2.40;;;23.30;76.90;;;;;;4874538;29;20057;-73
2022/05/11 10:25:30;;;;;;;9.90;2.58;;;23.20;76.80;;;;;;4896396;29;20056;-74
2022/05/11 10:28:05;;;;;;;9.32;2.63;;;23.10;74.30;;;;;;4894793;29;20048;-66
2022/05/11 10:30:54;;;;;;;9.88;2.65;;;23.10;72.60;;;;;;4885780;29;20110;-65
2022/05/11 10:33:59;;;;;;;8.00;2.63;;;23.40;76.90;;;;;;4879723;29;20104;-64
2022/05/11 10:36:43;;;;;;;8.75;2.60;;;23.50;74.70;;;;;;4937326;29;20056;-64
2022/05/11 10:39:51;;;;;;;10.73;2.50;;;23.30;74.30;;;;;;4918910;29;20054;-64
2022/05/11 10:43:01;;;;;;;7.57;2.20;;;23.20;76.80;;;;;;4862534;29;20530;-73
2022/05/11 10:45:49;;;;;;;11.55;2.58;;;23.40;73.20;;;;;;4862920;29;20144;-72
2022/05/11 10:48:41;;;;;;;8.27;2.38;;;23.10;76.60;;;;;;4861324;29;20056;-73
2022/05/11 10:51:35;;;;;;;7.25;2.63;;;23.40;72.10;;;;;;4873220;29;20067;-72
2022/05/11 10:54:30;;;;;;;9.05;2.15;;;23.40;76.80;;;;;;4854535;29;20095;-73
2022/05/11 10:57:26;;;;;;;8.23;2.35;;;23.20;72.70;;;;;;4861751;29;20116;-74
2022/05/11 11:00:15;;;;;;;10.95;2.67;;;23.30;77.20;;;;;;4846596;29;20071;-73
2022/05/11 11:03:08;;;;;;;6.28;2.17;;;23.10;76.70;;;;;;4861255;29;20052;-74
2022/05/11 11:05:40;;;;;;;11.80;2.30;;;23.20;77.00;;;;;;4871705;29;20061;-73
2022/05/11 11:08:17;;;;;;;10.32;2.22;;;23.30;74.20;;;;;;4881822;29;20044;-73
2022/05/11 11:10:59;;;;;;;8.60;2.35;;;23.30;76.60;;;;;;4849284;29;20049;-73
2022/05/11 11:13:54;;;;;;;7.57;2.17;;;23.50;72.80;;;;;;4878307;29;20209;-72
2022/05/11 11:16:20;;;;;;;7.80;2.60;;;;;;;;;;4867555;29;20163;-72
2022/05/11 11:18:49;;;;;;;9.50;2.60;;;23.10;76.50;;;;;;4885211;29;20070;-72
2022/05/11 11:21:15;;;;;;;7.25;2.47;;;23.30;76.70;;;;;;4893406;29;20036;-68
2022/05/11 11:23:43;;;;;;;10.52;2.20;;;23.40;74.00;;;;;;4895222;29;20067;-71
2022/05/11 11:26:11;;;;;;;8.52;2.22;;;23.50;74.10;;;;;;4902585;29;20516;-72
2022/05/11 11:28:39;;;;;;;7.45;2.17;;;23.40;76.60;;;;;;4945136;29;20039;-64
2022/05/11 11:31:12;;;;;;;9.68;2.40;;;23.40;71.90;;;;;;4918791;29;20067;-71
2022/05/11 11:33:39;;;;;;;6.35;2.05;;;23.60;76.50;;;;;;4955636;29;20039;-74
2022/05/11 11:36:05;;;;;;;9.80;2.42;;;23.60;76.40;;;;;;4878150;29;20123;-73
2022/05/11 11:38:44;;;;;;;6.63;2.15;;;23.50;76.40;;;;;;4935445;28;20475;-74
2022/05/11 11:41:22;;;;;;;7.43;2.35;;;23.80;76.50;;;;;;4947053;29;20079;-72
2022/05/11 11:43:52;;;;;;;20.67;3.08;;;23.70;76.30;;;;;;4907384;29;20203;-66
2022/05/11 11:46:41;;;;;;;11.77;2.58;;;23.60;76.10;;;;;;4919010;29;20055;-65
2022/05/11 11:49:12;;;;;;;12.77;2.72;;;23.70;76.20;;;;;;4903276;29;20065;-74
2022/05/11 11:52:00;;;;;;;8.02;2.20;;;23.60;75.70;;;;;;4903031;29;20059;-73
2022/05/11 11:54:29;;;;;;;9.95;2.33;;;23.60;75.70;;;;;;4903451;29;20056;-78
2022/05/11 11:56:57;;;;;;;11.90;1.95;;;23.70;75.60;;;;;;4935808;29;20553;-74
2022/05/11 11:59:24;;;;;;;12.43;2.60;;;23.60;75.60;;;;;;4905004;29;20063;-76
2022/05/11 12:02:11;;;;;;;9.13;2.72;;;23.60;75.60;;;;;;4937818;29;20401;-75
2022/05/11 12:05:02;;;;;;;13.48;3.28;;;23.80;73.10;;;;;;4899179;29;20064;-76
2022/05/11 12:16:18;;;;;;;10.43;1.88;;;23.60;75.70;;;;;;4895167;29;19972;-75
2022/05/11 12:18:44;;;;;;;5.72;1.52;;;23.80;72.70;;;;;;4877109;29;20092;-75
2022/05/11 12:21:29;;;;;;;7.72;2.03;;;23.70;72.90;;;;;;4861643;29;20109;-75
2022/05/11 12:23:56;;;;;;;6.10;1.63;;;23.60;75.40;;;;;;4877055;29;20470;-76
2022/05/11 12:26:26;;;;;;;7.78;2.15;;;24.10;72.80;;;;;;4855978;29;20519;-76
2022/05/11 12:29:54;;;;;;;5.68;1.60;;;24.00;73.10;;;;;;4861762;29;20545;-75
2022/05/11 12:31:37;;;;;;;8.43;1.92;;;23.80;72.50;;;;;;4861297;29;20175;-75
2022/05/11 12:34:03;;;;;;;6.68;2.05;;;23.50;74.90;;;;;;4858656;29;20227;-75
2022/05/11 12:36:37;;;;;;;5.38;1.60;;;23.90;72.40;;;;;;4831326;29;20487;-75
2022/05/11 12:39:03;;;;;;;8.90;2.15;;;23.90;72.80;;;;;;4846016;29;20554;-75
2022/05/11 12:41:29;;;;;;;6.88;1.67;;;23.90;74.90;;;;;;4834563;29;20053;-74
2022/05/11 12:44:03;;;;;;;9.07;2.10;;;23.70;74.80;;;;;;4847627;29;20064;-73
2022/05/11 12:46:29;;;;;;;8.05;1.67;;;23.90;72.50;;;;;;4918624;29;20091;-73
2022/05/11 12:49:05;;;;;;;5.63;1.90;;;23.60;71.70;;;;;;4902960;29;20153;-75
2022/05/11 12:51:39;;;;;;;7.10;1.77;;;23.70;74.20;;;;;;4883093;29;20091;-75
2022/05/11 12:54:06;;;;;;;7.22;1.95;;;23.70;74.10;;;;;;4935109;29;20455;-75
2022/05/11 12:56:38;;;;;;;7.47;2.03;;;23.70;71.70;;;;;;4953700;29;20134;-75
2022/05/11 12:59:20;;;;;;;14.60;2.15;;;23.70;71.70;;;;;;4953566;29;20486;-76
2022/05/11 13:01:46;;;;;;;7.87;2.20;;;23.80;70.30;;;;;;4937025;29;20047;-74
2022/05/11 13:04:20;;;;;;;6.82;1.70;;;23.60;71.00;;;;;;4953424;29;20078;-75
2022/05/11 13:06:54;;;;;;;9.02;1.95;;;23.50;68.80;;;;;;4956728;28;20209;-75
2022/05/11 13:09:39;;;;;;;5.60;1.83;;;23.40;71.20;;;;;;4914084;29;20405;-77
2022/05/11 13:12:06;;;;;;;8.10;2.45;;;23.50;73.60;;;;;;4954704;29;20125;-75
2022/05/11 13:14:36;;;;;;;10.35;2.05;;;23.30;73.30;;;;;;4958512;29;20126;-75
2022/05/11 13:17:04;;;;;;;12.90;2.10;;;23.60;73.50;;;;;;4925340;29;20051;-74
2022/05/11 13:19:32;;;;;;;11.07;2.20;;;23.70;70.90;;;;;;4924344;29;20043;-74
2022/05/11 13:21:59;;;;;;;10.30;2.38;;;23.50;70.60;;;;;;4911460;29;20048;-71
2022/05/11 13:24:59;;;;;;;9.57;1.98;;;23.60;73.70;;;;;;4891342;29;20032;-74
2022/05/11 13:27:39;;;;;;;7.57;2.00;;;23.40;73.80;;;;;;4849297;29;20065;-74
2022/05/11 13:30:29;;;;;;;8.35;1.73;;;23.50;74.00;;;;;;4872492;29;20503;-74
2022/05/11 13:32:56;;;;;;;9.27;1.90;;;23.40;73.70;;;;;;4883186;29;20181;-65
2022/05/11 13:35:23;;;;;;;12.23;1.80;;;;;;;;;;4862279;29;20056;-64
2022/05/11 13:38:08;;;;;;;9.63;2.20;;;23.60;73.60;;;;;;4883165;29;20056;-64
2022/05/11 13:40:39;;;;;;;17.52;2.13;;;23.50;69.60;;;;;;4852054;29;20540;-74
2022/05/11 13:43:22;;;;;;;8.88;2.22;;;23.60;73.20;;;;;;4870024;29;20053;-64
2022/05/11 13:46:05;;;;;;;8.23;2.47;;;23.50;73.10;;;;;;4884170;29;20053;-64
2022/05/11 13:48:36;;;;;;;15.15;2.97;;;23.40;73.00;;;;;;4882618;29;20411;-72
2022/05/11 13:51:20;;;;;;;12.35;2.15;;;23.70;68.50;;;;;;4882329;29;20075;-71
2022/05/11 13:53:49;;;;;;;8.57;2.17;;;23.30;73.10;;;;;;4882514;29;20060;-75